Boeing 737-8K5 from TUI Airlines Nederland at Funchal.
 Regi:PH-TFA  LARGER
 MSN Year:35100 2007
 Date of picture:2019-05-25 10:42
 Discription:C/s of TUI.
 Position:05
 Flight: ARR AMS HV6629 Amsterdam Schiphol Airport Netherlands
 Logs: AMS Amsterdam HV6629 Arkefly 10:36 AM B738 landed
 Notam LPMA A1382/19 International 05/23/2019 0000 06/06/2019 2359 TRIGGER NOTAM - PERM AIRAC AIP AMDT 002-2019 WEF 23 MAY 2019. IAP RNP Z RWY 05 AR AND IAP RNP RWY 23 AR ALTITUDE RESTRICTIONS CHANGED.
 Metar 25/05/2019 10:30 METAR LPMA 251030Z 01015G27KT 9999 SCT015 22/12 Q1021=
 Hits: 46 ID: 2308

Debriefing: Photographed movements of Airports in NW-Europe.
The images of our site attendant is in authorisation from Queen of Sky.
Copying of images of this site have been prohibited in which manner without the authorisation of the photographer.
In behalf of the crew :"Thank you visiting us" - Contact
Factsheets Boeing, 737-8K5, TUI Airlines Nederland, made by De Plane! © 2006 - 2022 All rights reserved


.